createdAt,value
2018-11-21T00:04:43.115Z,24.47
2018-11-21T00:09:45.871Z,24.03
2018-11-21T00:14:48.717Z,23.70
2018-11-21T00:19:51.515Z,24.77
2018-11-21T00:24:54.291Z,24.07
2018-11-21T00:29:57.272Z,21.07
2018-11-21T00:35:00.240Z,21.77
2018-11-21T00:40:05.441Z,22.30
2018-11-21T00:45:09.059Z,23.50
2018-11-21T00:50:12.006Z,22.57
2018-11-21T00:55:14.896Z,26.00
2018-11-21T01:00:17.707Z,24.13
2018-11-21T01:05:20.608Z,24.73
2018-11-21T01:10:23.550Z,25.43
2018-11-21T01:15:26.295Z,23.93
2018-11-21T01:20:29.072Z,26.40
2018-11-21T01:25:31.870Z,25.80
2018-11-21T01:30:34.600Z,25.87
2018-11-21T01:35:37.605Z,26.03
2018-11-21T01:40:40.437Z,30.23
2018-11-21T01:45:43.238Z,26.33
2018-11-21T01:50:45.980Z,28.03
2018-11-21T01:55:48.770Z,30.70
2018-11-21T02:00:51.509Z,25.93
2018-11-21T02:05:55.258Z,31.90
2018-11-21T02:10:58.238Z,29.97
2018-11-21T02:16:01.108Z,29.97
2018-11-21T02:21:03.853Z,30.57
2018-11-21T02:26:06.710Z,30.03
2018-11-21T02:31:09.538Z,29.37
2018-11-21T02:36:14.511Z,28.17
2018-11-21T02:41:17.211Z,31.50
2018-11-21T02:46:20.135Z,30.20
2018-11-21T02:51:22.910Z,28.97
2018-11-21T02:57:15.909Z,31.03
2018-11-21T03:02:18.764Z,29.30
2018-11-21T03:07:21.587Z,31.43
2018-11-21T03:12:24.547Z,30.83
2018-11-21T03:17:27.508Z,30.80
2018-11-21T03:22:30.341Z,33.07
2018-11-21T03:27:33.346Z,34.10
2018-11-21T03:32:36.459Z,36.93
2018-11-21T03:37:39.342Z,32.17
2018-11-21T03:42:42.170Z,35.97
2018-11-21T03:47:44.988Z,37.40
2018-11-21T03:52:47.936Z,30.83
2018-11-21T03:57:50.799Z,34.40
2018-11-21T04:02:53.618Z,35.60
2018-11-21T04:07:56.685Z,36.80
2018-11-21T04:12:59.406Z,37.47
2018-11-21T04:18:02.272Z,34.07
2018-11-21T04:23:05.155Z,38.50
2018-11-21T04:28:07.983Z,34.87
2018-11-21T04:33:10.776Z,38.33
2018-11-21T04:38:13.707Z,38.47
2018-11-21T04:43:16.466Z,36.50
2018-11-21T04:48:19.349Z,36.07
2018-11-21T04:53:22.135Z,38.47
2018-11-21T04:58:24.949Z,33.93
2018-11-21T05:03:27.676Z,35.90
2018-11-21T05:08:30.511Z,39.13
2018-11-21T05:13:33.699Z,37.63
2018-11-21T05:18:36.517Z,32.30
2018-11-21T05:23:39.418Z,36.87
2018-11-21T05:28:42.305Z,36.80
2018-11-21T05:33:45.081Z,36.40
2018-11-21T05:38:48.039Z,39.20
2018-11-21T05:43:50.776Z,39.10
2018-11-21T05:48:53.615Z,34.53
2018-11-21T05:53:56.852Z,35.23
2018-11-21T05:58:59.810Z,37.67
2018-11-21T06:04:02.562Z,40.00
2018-11-21T06:09:10.125Z,34.30
2018-11-21T06:14:13.117Z,39.83
2018-11-21T06:19:15.959Z,42.60
2018-11-21T06:24:18.979Z,37.07
2018-11-21T06:29:21.950Z,44.90
2018-11-21T06:34:24.707Z,41.33
2018-11-21T06:39:27.608Z,44.27
2018-11-21T06:44:30.444Z,40.97
2018-11-21T06:49:33.201Z,39.73
2018-11-21T06:54:36.076Z,36.97
2018-11-21T06:59:38.873Z,39.63
2018-11-21T07:04:41.723Z,42.30
2018-11-21T07:09:44.648Z,40.23
2018-11-21T07:14:47.413Z,40.53
2018-11-21T07:19:50.868Z,40.13
2018-11-21T07:24:53.670Z,40.47
2018-11-21T07:29:56.530Z,40.60
2018-11-21T07:34:59.315Z,39.20
2018-11-21T07:40:02.148Z,39.47
2018-11-21T07:45:08.041Z,37.07
2018-11-21T07:50:13.909Z,38.73
2018-11-21T07:55:16.753Z,40.73
2018-11-21T08:00:56.028Z,44.90
2018-11-21T08:06:10.451Z,38.47
2018-11-21T08:11:31.391Z,37.40
2018-11-21T08:17:07.483Z,35.77
2018-11-21T08:22:32.815Z,40.90
2018-11-21T08:27:53.813Z,39.43
2018-11-21T08:32:56.609Z,39.83
2018-11-21T08:37:59.496Z,37.37
2018-11-21T08:43:02.510Z,36.70
2018-11-21T08:48:06.371Z,34.97
2018-11-21T08:53:09.287Z,38.50
2018-11-21T08:58:12.066Z,36.50
2018-11-21T09:03:14.978Z,37.93
2018-11-21T09:08:17.811Z,39.10
2018-11-21T09:13:20.657Z,36.33
2018-11-21T09:18:23.391Z,37.53
2018-11-21T09:23:26.155Z,40.97
2018-11-21T09:28:30.118Z,38.97
2018-11-21T09:33:33.208Z,36.07
2018-11-21T09:38:36.031Z,38.13
2018-11-21T09:43:38.841Z,39.90
2018-11-21T09:48:41.715Z,41.27
2018-11-21T09:53:44.469Z,39.30
2018-11-21T09:58:47.456Z,40.03
2018-11-21T10:03:50.250Z,40.10
2018-11-21T10:08:54.831Z,41.43
2018-11-21T10:13:57.668Z,41.17
2018-11-21T10:19:00.847Z,37.07
2018-11-21T10:24:03.791Z,40.93
2018-11-21T10:29:06.563Z,37.40
2018-11-21T10:34:10.008Z,39.23
2018-11-21T10:39:12.776Z,39.57
2018-11-21T10:44:15.652Z,39.00
2018-11-21T10:49:18.433Z,36.53
2018-11-21T10:54:21.298Z,42.87
2018-11-21T10:59:24.175Z,35.97
2018-11-21T11:04:33.890Z,37.60
2018-11-21T11:09:55.132Z,38.43
2018-11-21T11:15:36.352Z,34.53
2018-11-21T11:21:11.631Z,37.13
2018-11-21T11:26:31.654Z,36.20
2018-11-21T11:31:56.961Z,39.30
2018-11-21T11:37:17.767Z,35.30
2018-11-21T11:42:38.550Z,38.40
2018-11-21T11:47:59.512Z,35.80
2018-11-21T11:53:10.266Z,39.10
2018-11-21T11:58:35.499Z,38.07
2018-11-21T12:03:57.962Z,37.27
2018-11-21T12:09:22.830Z,34.10
2018-11-21T12:14:33.611Z,36.50
2018-11-21T12:19:54.559Z,37.43
2018-11-21T12:25:25.949Z,37.23
2018-11-21T12:30:48.161Z,34.97
2018-11-21T12:36:09.280Z,35.23
2018-11-21T12:41:31.661Z,37.50
2018-11-21T12:46:54.047Z,39.80
2018-11-21T12:52:16.494Z,38.87
2018-11-21T12:57:50.893Z,36.37
2018-11-21T13:03:19.230Z,32.97
2018-11-21T13:08:41.646Z,34.97
2018-11-21T13:14:02.996Z,38.40
2018-11-21T13:19:23.975Z,38.03
2018-11-21T13:25:04.989Z,38.30
2018-11-21T13:30:29.676Z,40.80
2018-11-21T13:35:45.003Z,38.97
2018-11-21T13:41:01.690Z,38.07
2018-11-21T13:46:27.228Z,36.00
2018-11-21T13:51:56.056Z,40.00
2018-11-21T13:56:59.534Z,31.57
2018-11-21T14:02:03.332Z,35.93
2018-11-21T14:07:07.632Z,37.37
2018-11-21T14:12:11.603Z,36.27
2018-11-21T14:17:14.485Z,38.37
2018-11-21T14:22:17.620Z,34.37
2018-11-21T14:27:20.570Z,37.37
2018-11-21T14:32:23.308Z,38.63
2018-11-21T14:37:26.128Z,35.30
2018-11-21T14:42:28.872Z,36.27
2018-11-21T14:47:31.734Z,40.13
2018-11-21T14:52:34.487Z,38.27
2018-11-21T14:57:37.721Z,36.30
2018-11-21T15:02:40.790Z,38.70
2018-11-21T15:07:44.943Z,39.83
2018-11-21T15:12:47.717Z,42.33
2018-11-21T15:17:50.594Z,41.57
2018-11-21T15:22:53.310Z,37.57
2018-11-21T15:27:56.261Z,39.03
2018-11-21T15:32:59.002Z,37.63
2018-11-21T15:38:01.835Z,41.57
2018-11-21T15:43:04.851Z,42.03
2018-11-21T15:48:08.836Z,43.27
2018-11-21T15:53:11.675Z,40.17
2018-11-21T15:58:14.880Z,43.20
2018-11-21T16:03:17.754Z,42.60
2018-11-21T16:08:20.569Z,41.57
2018-11-21T16:13:23.374Z,40.63
2018-11-21T16:18:26.876Z,42.27
2018-11-21T16:23:29.740Z,45.50
2018-11-21T16:28:32.687Z,45.63
2018-11-21T16:33:35.802Z,45.63
2018-11-21T16:38:38.714Z,41.40
2018-11-21T16:43:41.507Z,43.47
2018-11-21T16:48:44.358Z,45.83
2018-11-21T16:53:47.170Z,45.80
2018-11-21T16:58:50.100Z,42.07
2018-11-21T17:03:53.145Z,42.53
2018-11-21T17:08:56.039Z,41.20
2018-11-21T17:13:58.804Z,42.47
2018-11-21T17:19:01.621Z,44.50
2018-11-21T17:24:05.216Z,42.13
2018-11-21T17:29:08.808Z,38.67
2018-11-21T17:34:10.935Z,49.03
2018-11-21T17:39:14.495Z,44.30
2018-11-21T17:44:17.293Z,49.40
2018-11-21T17:49:20.153Z,46.70
2018-11-21T17:54:22.936Z,51.40
2018-11-21T17:59:25.830Z,45.60
2018-11-21T18:04:28.740Z,46.63
2018-11-21T18:09:31.563Z,50.47
2018-11-21T18:14:34.437Z,48.43
2018-11-21T18:19:37.230Z,57.90
2018-11-21T18:24:40.687Z,48.63
2018-11-21T18:29:44.106Z,51.10
2018-11-21T18:34:46.907Z,49.70
2018-11-21T18:39:49.709Z,49.90
2018-11-21T18:44:52.489Z,52.77
2018-11-21T18:49:55.522Z,53.23
2018-11-21T18:54:58.345Z,49.70
2018-11-21T19:00:20.319Z,54.03
2018-11-21T19:05:23.172Z,49.53
2018-11-21T19:10:25.982Z,55.73
2018-11-21T19:15:28.758Z,53.77
2018-11-21T19:20:31.577Z,48.07
2018-11-21T19:25:34.350Z,52.10
2018-11-21T19:30:37.133Z,50.90
2018-11-21T19:35:40.002Z,51.40
2018-11-21T19:40:42.721Z,50.83
2018-11-21T19:45:45.549Z,51.23
2018-11-21T19:50:48.695Z,50.23
2018-11-21T19:55:51.699Z,50.17
2018-11-21T20:00:54.564Z,50.73
2018-11-21T20:05:57.632Z,48.87
2018-11-21T20:11:00.421Z,49.90
2018-11-21T20:16:03.250Z,45.67
2018-11-21T20:21:06.007Z,44.53
2018-11-21T20:26:08.958Z,47.33
2018-11-21T20:31:11.837Z,44.00
2018-11-21T20:36:15.110Z,46.20
2018-11-21T20:41:17.932Z,46.13
2018-11-21T20:46:21.092Z,44.73
2018-11-21T20:51:23.906Z,45.23
2018-11-21T20:56:26.776Z,47.23
2018-11-21T21:01:30.366Z,46.97
2018-11-21T21:06:33.130Z,43.70
2018-11-21T21:11:55.579Z,41.93
2018-11-21T21:16:58.463Z,45.33
2018-11-21T21:22:01.547Z,43.37
2018-11-21T21:27:05.227Z,45.13
2018-11-21T21:32:08.014Z,44.00
2018-11-21T21:37:15.602Z,48.03
2018-11-21T21:42:18.480Z,45.60
2018-11-21T21:47:21.576Z,42.17
2018-11-21T21:52:25.026Z,45.00
2018-11-21T21:57:28.307Z,45.00
2018-11-21T22:02:31.085Z,42.43
2018-11-21T22:07:34.161Z,40.87
2018-11-21T22:12:36.931Z,40.20
2018-11-21T22:17:39.743Z,35.10
2018-11-21T22:22:42.615Z,36.23
2018-11-21T22:27:45.433Z,39.40
2018-11-21T22:32:49.075Z,34.33
2018-11-21T22:37:51.841Z,39.27
2018-11-21T22:42:54.639Z,37.37
2018-11-21T22:47:57.453Z,38.10
2018-11-21T22:53:00.236Z,40.57
2018-11-21T22:58:03.175Z,38.40
2018-11-21T23:03:06.056Z,38.13
2018-11-21T23:08:09.055Z,42.83
2018-11-21T23:13:11.923Z,39.83
2018-11-21T23:18:14.930Z,39.23
2018-11-21T23:23:17.829Z,40.57
2018-11-21T23:28:20.648Z,38.60
2018-11-21T23:33:23.576Z,41.60
2018-11-21T23:38:26.725Z,38.37
2018-11-21T23:43:29.553Z,37.40
2018-11-21T23:48:32.285Z,39.33
2018-11-21T23:53:35.279Z,43.80
2018-11-21T23:58:38.047Z,37.70
